< Typhoon 202207 2022 Season Typhoon 202209 >
Typhoon 202208 (MEARI)
General InformationTrack Information on Google MapsDetailed Wind InformationForecast History on Google MapsAccess Analytics MapList of All Images || NewsDisaster Info.JMA Disaster Info. XMLWeblogTrackbackTyphoon FrontTwiphoonTyphoon Now!Typhoon ImaginationResourceGoogle EarthGE AnimationAtom FeedGeoJSON
Detalied Best Track (Time Zone = UTC)
Year Month Day Hour Lat. Long. Pressure (hPa) Wind (kt) Class Image Chart
2022 8 10 00 25.5 140.3 1008 30 2 Image Chart
2022 8 10 03 25.9 139.8 1008 30 2 Image Chart
2022 8 10 06 26.6 139.1 1006 30 2 Image Chart
2022 8 10 09 26.9 138.9 1008 30 2 Image Chart
2022 8 10 12 27.1 138.1 1008 30 2 Image Chart
2022 8 10 15 27.3 137.7 1008 30 2 Image Chart
2022 8 10 18 27.9 137.6 1006 30 2 Image Chart
2022 8 10 21 28.2 137.1 1006 30 2 Image Chart
2022 8 11 00 28.7 136.7 1006 30 2 Image Chart
2022 8 11 03 28.9 136.5 1006 30 2 Image Chart
2022 8 11 06 29.0 136.2 1006 30 2 Image Chart
2022 8 11 09 29.2 135.9 1006 30 2 Image Chart
2022 8 11 12 29.4 135.8 1006 30 2 Image Chart
2022 8 11 15 29.5 135.8 1006 30 2 Image Chart
2022 8 11 18 29.6 135.9 1004 35 3 Image Chart
2022 8 11 21 29.8 136.1 1004 35 3 Image Chart
2022 8 12 00 30.2 136.2 1004 35 3 Image Chart
2022 8 12 03 30.6 136.2 1004 35 3 Image Chart
2022 8 12 06 30.8 136.3 1002 35 3 Image Chart
2022 8 12 09 31.1 136.5 1002 35 3 Image Chart
2022 8 12 12 31.9 136.7 1002 35 3 Image Chart
2022 8 12 15 32.5 136.6 1002 35 3 Image Chart
2022 8 12 18 32.9 136.7 1000 40 3 Image Chart
2022 8 12 21 33.2 136.9 1000 40 3 Image Chart
2022 8 13 00 33.8 137.2 1000 40 3 Image Chart
2022 8 13 03 34.3 137.7 1000 40 3 Image Chart
2022 8 13 06 34.7 138.2 998 40 3 Image Chart
2022 8 13 09 35.2 139.1 998 40 3 Image Chart
2022 8 13 12 35.8 140.3 998 40 3 Image Chart
2022 8 13 15 36.3 141.5 998 40 3 Image Chart
2022 8 13 18 37.4 142.6 998 40 3 Image Chart
2022 8 13 21 38.1 143.9 998 40 3 Image Chart
2022 8 14 00 39.2 144.7 998 40 3 Image Chart
2022 8 14 03 40.3 146.0 998 40 3 Image Chart
2022 8 14 06 41.2 147.2 996 40 3 Image Chart
2022 8 14 09 41.8 148.3 994 40 3 Image Chart
2022 8 14 12 44.0 150.0 994 45 6 Image Chart
Japan Meteorological Agency Best Track Data | Correction Date : 2022-08-14
< Typhoon 202207 2022 Season Typhoon 202209 >

Help